createdAt,value
2023-04-16T00:01:37.135Z,101588.28
2023-04-16T00:04:03.857Z,101589.88
2023-04-16T00:06:30.709Z,101595.47
2023-04-16T00:08:57.186Z,101592.59
2023-04-16T00:11:23.987Z,101584.34
2023-04-16T00:13:50.458Z,101582.75
2023-04-16T00:16:17.016Z,101591.81
2023-04-16T00:18:43.503Z,101596.13
2023-04-16T00:21:09.968Z,101593.00
2023-04-16T00:23:36.527Z,101596.22
2023-04-16T00:26:02.959Z,101593.00
2023-04-16T00:28:29.551Z,101597.78
2023-04-16T00:30:56.071Z,101601.28
2023-04-16T00:33:24.070Z,101605.66
2023-04-16T00:35:51.158Z,101601.00
2023-04-16T00:38:17.716Z,101598.97
2023-04-16T00:40:44.262Z,101606.53
2023-04-16T00:43:10.835Z,101597.78
2023-04-16T00:45:37.320Z,101593.44
2023-04-16T00:48:04.479Z,101600.19
2023-04-16T00:50:31.040Z,101588.69
2023-04-16T00:52:58.048Z,101606.09
2023-04-16T00:55:24.787Z,101606.09
2023-04-16T00:57:51.198Z,101595.47
2023-04-16T01:00:17.652Z,101610.88
2023-04-16T01:02:44.394Z,101610.88
2023-04-16T01:05:11.350Z,101611.72
2023-04-16T01:07:37.806Z,101612.84
2023-04-16T01:10:04.593Z,101608.91
2023-04-16T01:12:31.162Z,101612.91
2023-04-16T01:14:57.707Z,101601.03
2023-04-16T01:17:24.218Z,101606.53
2023-04-16T01:19:50.725Z,101616.03
2023-04-16T01:22:17.233Z,101606.53
2023-04-16T01:24:44.854Z,101610.06
2023-04-16T01:27:11.379Z,101610.06
2023-04-16T01:29:37.887Z,101618.34
2023-04-16T01:32:04.326Z,101619.97
2023-04-16T01:34:30.773Z,101625.50
2023-04-16T01:36:57.270Z,101629.41
2023-04-16T01:39:23.801Z,101631.03
2023-04-16T01:41:50.300Z,101626.28
2023-04-16T01:44:16.794Z,101631.06
2023-04-16T01:46:44.149Z,101628.31
2023-04-16T01:49:10.878Z,101634.28
2023-04-16T01:51:37.629Z,101628.75
2023-04-16T01:54:04.201Z,101633.47
2023-04-16T01:56:30.651Z,101627.13
2023-04-16T01:58:57.123Z,101631.16
2023-04-16T02:01:24.233Z,101633.53
2023-04-16T02:03:52.237Z,101632.66
2023-04-16T02:06:18.851Z,101639.84
2023-04-16T02:08:45.312Z,101626.84
2023-04-16T02:11:11.772Z,101631.25
2023-04-16T02:13:38.298Z,101631.28
2023-04-16T02:16:05.493Z,101634.06
2023-04-16T02:18:32.082Z,101631.72
2023-04-16T02:21:02.248Z,101620.31
2023-04-16T02:23:28.732Z,101626.63
2023-04-16T02:25:55.249Z,101623.84
2023-04-16T02:28:21.678Z,101632.25
2023-04-16T02:30:48.162Z,101630.28
2023-04-16T02:33:14.635Z,101625.47
2023-04-16T02:35:41.386Z,101634.63
2023-04-16T02:38:08.032Z,101632.66
2023-04-16T02:40:34.789Z,101639.00
2023-04-16T02:43:01.268Z,101628.66
2023-04-16T02:45:27.912Z,101627.06
2023-04-16T02:47:54.428Z,101633.06
2023-04-16T02:50:21.129Z,101636.66
2023-04-16T02:52:47.662Z,101634.69
2023-04-16T02:55:14.268Z,101631.91
2023-04-16T02:57:42.310Z,101631.16
2023-04-16T03:00:09.240Z,101628.78
2023-04-16T03:02:36.092Z,101633.94
2023-04-16T03:05:03.570Z,101636.34
2023-04-16T03:07:30.177Z,101634.41
2023-04-16T03:09:56.869Z,101632.81
2023-04-16T03:12:23.468Z,101639.16
2023-04-16T03:14:52.379Z,101631.59
2023-04-16T03:17:18.831Z,101637.50
2023-04-16T03:19:45.401Z,101637.91
2023-04-16T03:22:11.806Z,101642.31
2023-04-16T03:24:38.273Z,101640.31
2023-04-16T03:27:04.751Z,101648.25
2023-04-16T03:29:31.196Z,101640.31
2023-04-16T03:31:57.723Z,101639.16
2023-04-16T03:34:24.364Z,101643.53
2023-04-16T03:36:50.935Z,101636.41
2023-04-16T03:39:17.388Z,101648.69
2023-04-16T03:41:43.896Z,101646.66
2023-04-16T03:44:10.617Z,101640.69
2023-04-16T03:46:37.073Z,101639.56
2023-04-16T03:49:03.619Z,101640.75
2023-04-16T03:51:30.052Z,101642.22
2023-04-16T03:53:56.505Z,101650.63
2023-04-16T03:56:22.998Z,101653.00
2023-04-16T03:58:49.439Z,101648.56
2023-04-16T04:01:15.898Z,101659.31
2023-04-16T04:03:42.408Z,101657.72
2023-04-16T04:06:09.413Z,101653.84
2023-04-16T04:08:35.848Z,101649.50
2023-04-16T04:11:02.310Z,101656.22
2023-04-16T04:13:28.807Z,101664.91
2023-04-16T04:15:55.412Z,101654.28
2023-04-16T04:18:21.935Z,101657.81
2023-04-16T04:20:48.514Z,101655.50
2023-04-16T04:23:15.001Z,101659.41
2023-04-16T04:25:41.492Z,101659.84
2023-04-16T04:28:07.960Z,101661.41
2023-04-16T04:30:35.864Z,101671.28
2023-04-16T04:33:02.495Z,101668.88
2023-04-16T04:35:29.148Z,101665.38
2023-04-16T04:37:55.733Z,101665.75
2023-04-16T04:40:22.401Z,101679.16
2023-04-16T04:42:49.100Z,101672.09
2023-04-16T04:45:16.059Z,101676.44
2023-04-16T04:47:42.570Z,101674.13
2023-04-16T04:50:09.635Z,101675.25
2023-04-16T04:52:36.258Z,101675.25
2023-04-16T04:55:02.764Z,101681.97
2023-04-16T04:57:29.192Z,101680.78
2023-04-16T04:59:55.883Z,101688.72
2023-04-16T05:02:22.431Z,101692.31
2023-04-16T05:04:48.944Z,101691.50
2023-04-16T05:07:15.838Z,101694.25
2023-04-16T05:09:42.311Z,101698.28
2023-04-16T05:12:08.818Z,101697.03
2023-04-16T05:14:36.179Z,101709.72
2023-04-16T05:17:02.718Z,101702.19
2023-04-16T05:19:29.372Z,101709.34
2023-04-16T05:21:56.205Z,101703.84
2023-04-16T05:24:23.234Z,101703.84
2023-04-16T05:26:49.841Z,101712.94
2023-04-16T05:29:16.299Z,101721.66
2023-04-16T05:31:42.858Z,101713.38
2023-04-16T05:34:09.322Z,101715.75
2023-04-16T05:36:35.795Z,101722.09
2023-04-16T05:39:02.270Z,101723.69
2023-04-16T05:41:29.250Z,101732.00
2023-04-16T05:43:55.717Z,101743.44
2023-04-16T05:46:22.205Z,101737.91
2023-04-16T05:48:48.692Z,101739.13
2023-04-16T05:51:15.260Z,101745.09
2023-04-16T05:53:42.030Z,101741.47
2023-04-16T05:56:08.709Z,101743.50
2023-04-16T05:58:35.230Z,101745.91
2023-04-16T06:01:01.827Z,101751.06
2023-04-16T06:03:28.431Z,101757.00
2023-04-16T06:05:55.078Z,101761.75
2023-04-16T06:08:21.615Z,101757.44
2023-04-16T06:10:48.168Z,101764.56
2023-04-16T06:13:14.998Z,101759.47
2023-04-16T06:15:41.807Z,101762.22
2023-04-16T06:18:08.348Z,101760.31
2023-04-16T06:20:34.916Z,101764.66
2023-04-16T06:23:01.346Z,101760.34
2023-04-16T06:25:27.821Z,101756.06
2023-04-16T06:27:54.282Z,101763.19
2023-04-16T06:30:20.956Z,101768.75
2023-04-16T06:32:48.034Z,101772.41
2023-04-16T06:35:14.704Z,101770.84
2023-04-16T06:37:41.500Z,101772.44
2023-04-16T06:40:08.515Z,101774.84
2023-04-16T06:42:34.977Z,101778.44
2023-04-16T06:45:01.630Z,101780.09
2023-04-16T06:47:28.143Z,101778.16
2023-04-16T06:49:54.665Z,101775.00
2023-04-16T06:52:21.160Z,101788.50
2023-04-16T06:54:48.288Z,101785.72
2023-04-16T06:57:14.801Z,101785.34
2023-04-16T06:59:41.253Z,101794.50
2023-04-16T07:02:10.526Z,101778.25
2023-04-16T07:04:37.263Z,101786.28
2023-04-16T07:07:03.960Z,101789.88
2023-04-16T07:09:30.549Z,101786.81
2023-04-16T07:11:57.030Z,101788.88
2023-04-16T07:14:23.540Z,101794.84
2023-04-16T07:16:50.182Z,101795.63
2023-04-16T07:19:16.727Z,101794.06
2023-04-16T07:21:43.773Z,101798.47
2023-04-16T07:24:11.637Z,101800.19
2023-04-16T07:26:38.107Z,101804.56
2023-04-16T07:29:04.598Z,101803.44
2023-04-16T07:31:31.323Z,101811.44
2023-04-16T07:33:58.344Z,101796.41
2023-04-16T07:36:25.018Z,101801.66
2023-04-16T07:38:51.476Z,101812.03
2023-04-16T07:41:18.031Z,101814.41
2023-04-16T07:43:44.512Z,101820.38
2023-04-16T07:46:11.016Z,101823.13
2023-04-16T07:48:37.514Z,101825.16
2023-04-16T07:51:04.028Z,101825.59
2023-04-16T07:53:30.725Z,101828.00
2023-04-16T07:55:57.213Z,101821.31
2023-04-16T07:58:23.645Z,101826.13
2023-04-16T08:00:51.066Z,101829.34
2023-04-16T08:03:18.280Z,101830.66
2023-04-16T08:05:44.972Z,101835.78
2023-04-16T08:08:11.514Z,101835.50
2023-04-16T08:10:38.886Z,101833.59
2023-04-16T08:13:05.416Z,101826.84
2023-04-16T08:15:32.476Z,101835.19
2023-04-16T08:17:59.658Z,101844.31
2023-04-16T08:20:26.290Z,101846.66
2023-04-16T08:22:54.210Z,101855.03
2023-04-16T08:25:20.884Z,101854.22
2023-04-16T08:27:47.450Z,101843.19
2023-04-16T08:30:15.172Z,101848.44
2023-04-16T08:32:41.728Z,101849.75
2023-04-16T08:35:08.836Z,101848.22
2023-04-16T08:37:35.422Z,101851.50
2023-04-16T08:40:02.532Z,101863.91
2023-04-16T08:42:34.034Z,101867.19
2023-04-16T08:45:06.875Z,101872.75
2023-04-16T08:47:35.147Z,101876.34
2023-04-16T08:50:04.191Z,101881.47
2023-04-16T08:52:31.994Z,101878.31
2023-04-16T08:54:58.606Z,101869.97
2023-04-16T08:57:30.507Z,101878.72
2023-04-16T08:59:58.216Z,101883.56
2023-04-16T09:02:26.440Z,101881.22
2023-04-16T09:04:53.955Z,101883.97
2023-04-16T09:07:21.885Z,101890.31
2023-04-16T09:09:49.960Z,101885.47
2023-04-16T09:12:17.563Z,101887.06
2023-04-16T09:14:49.449Z,101888.22
2023-04-16T09:17:16.852Z,101888.66
2023-04-16T09:19:43.446Z,101892.63
2023-04-16T09:22:10.009Z,101887.81
2023-04-16T09:24:38.452Z,101902.53
2023-04-16T09:27:05.466Z,101893.00
2023-04-16T09:29:39.942Z,101901.47
2023-04-16T09:32:09.086Z,101903.88
2023-04-16T09:34:55.592Z,101910.66
2023-04-16T09:37:22.261Z,101909.47
2023-04-16T09:39:58.944Z,101892.31
2023-04-16T09:42:32.943Z,101902.75
2023-04-16T09:45:01.996Z,101907.56
2023-04-16T09:47:55.174Z,101912.34
2023-04-16T09:50:21.677Z,101915.16
2023-04-16T09:52:51.178Z,101906.88
2023-04-16T09:55:23.705Z,101916.47
2023-04-16T09:57:58.835Z,101913.34
2023-04-16T10:00:25.519Z,101913.41
2023-04-16T10:03:03.769Z,101915.44
2023-04-16T10:05:30.406Z,101913.84
2023-04-16T10:08:00.550Z,101925.44
2023-04-16T10:10:27.068Z,101919.09
2023-04-16T10:12:55.311Z,101924.31
2023-04-16T10:15:22.468Z,101930.75
2023-04-16T10:17:50.195Z,101927.97
2023-04-16T10:20:18.388Z,101921.59
2023-04-16T10:22:45.511Z,101926.38
2023-04-16T10:25:12.808Z,101921.63
2023-04-16T10:27:40.682Z,101930.78
2023-04-16T10:30:09.357Z,101932.00
2023-04-16T10:32:36.875Z,101934.41
2023-04-16T10:35:03.662Z,101936.41
2023-04-16T10:37:31.362Z,101942.41
2023-04-16T10:40:00.844Z,101937.63
2023-04-16T10:42:27.548Z,101941.59
2023-04-16T10:44:54.055Z,101930.44
2023-04-16T10:47:24.952Z,101929.63
2023-04-16T10:49:51.926Z,101926.06
2023-04-16T10:52:18.495Z,101921.69
2023-04-16T10:54:46.772Z,101912.94
2023-04-16T10:57:17.875Z,101914.56
2023-04-16T10:59:45.411Z,101908.56
2023-04-16T11:02:17.533Z,101906.16
2023-04-16T11:04:48.552Z,101912.94
2023-04-16T11:07:17.580Z,101910.53
2023-04-16T11:09:47.122Z,101910.94
2023-04-16T11:12:16.925Z,101906.56
2023-04-16T11:14:43.579Z,101912.50
2023-04-16T11:17:10.253Z,101909.31
2023-04-16T11:19:38.056Z,101904.88
2023-04-16T11:22:05.443Z,101914.81
2023-04-16T11:24:32.933Z,101907.22
2023-04-16T11:26:59.873Z,101911.13
2023-04-16T11:29:26.337Z,101909.50
2023-04-16T11:31:54.532Z,101908.72
2023-04-16T11:34:21.431Z,101905.53
2023-04-16T11:36:49.395Z,101914.31
2023-04-16T11:39:16.028Z,101912.66
2023-04-16T11:41:47.996Z,101914.69
2023-04-16T11:44:25.408Z,101903.16
2023-04-16T11:46:53.225Z,101912.34
2023-04-16T11:49:32.496Z,101915.56
2023-04-16T11:51:59.151Z,101913.16
2023-04-16T11:54:26.024Z,101904.47
2023-04-16T11:56:53.546Z,101912.81
2023-04-16T11:59:23.588Z,101912.81
2023-04-16T12:01:51.809Z,101911.66
2023-04-16T12:04:29.416Z,101916.03
2023-04-16T12:07:05.106Z,101921.25
2023-04-16T12:09:31.572Z,101922.84
2023-04-16T12:11:58.041Z,101919.28
2023-04-16T12:14:24.491Z,101914.09
2023-04-16T12:16:51.081Z,101920.06
2023-04-16T12:19:18.288Z,101928.03
2023-04-16T12:21:47.074Z,101929.66
2023-04-16T12:24:15.698Z,101923.69
2023-04-16T12:26:48.661Z,101920.91
2023-04-16T12:29:16.442Z,101926.88
2023-04-16T12:31:43.290Z,101919.72
2023-04-16T12:34:12.888Z,101913.72
2023-04-16T12:36:39.678Z,101924.09
2023-04-16T12:39:06.286Z,101924.06
2023-04-16T12:41:36.339Z,101923.66
2023-04-16T12:44:14.006Z,101927.59
2023-04-16T12:46:42.039Z,101919.25
2023-04-16T12:49:10.164Z,101921.97
2023-04-16T12:51:38.406Z,101926.34
2023-04-16T12:54:07.319Z,101921.16
2023-04-16T12:56:34.265Z,101925.16
2023-04-16T12:59:00.759Z,101920.38
2023-04-16T13:01:27.300Z,101926.31
2023-04-16T13:03:54.166Z,101926.25
2023-04-16T13:06:21.084Z,101921.06
2023-04-16T13:08:47.627Z,101918.97
2023-04-16T13:11:14.379Z,101919.69
2023-04-16T13:13:40.948Z,101917.16
2023-04-16T13:16:08.556Z,101920.22
2023-04-16T13:18:40.140Z,101917.78
2023-04-16T13:21:06.641Z,101927.41
2023-04-16T13:23:33.228Z,101917.03
2023-04-16T13:25:59.727Z,101909.47
2023-04-16T13:28:26.441Z,101910.69
2023-04-16T13:30:53.258Z,101910.44
2023-04-16T13:33:20.906Z,101919.16
2023-04-16T13:35:50.623Z,101910.78
2023-04-16T13:38:17.224Z,101914.00
2023-04-16T13:40:44.540Z,101919.19
2023-04-16T13:43:11.458Z,101909.28
2023-04-16T13:45:37.950Z,101918.06
2023-04-16T13:48:04.760Z,101917.72
2023-04-16T13:50:31.319Z,101912.59
2023-04-16T13:52:57.889Z,101910.59
2023-04-16T13:55:24.494Z,101908.63
2023-04-16T13:57:52.492Z,101894.28
2023-04-16T14:00:19.607Z,101899.06
2023-04-16T14:02:46.192Z,101903.44
2023-04-16T14:05:12.849Z,101897.84
2023-04-16T14:07:39.381Z,101898.63
2023-04-16T14:10:06.519Z,101903.03
2023-04-16T14:12:33.177Z,101905.00
2023-04-16T14:14:59.753Z,101902.31
2023-04-16T14:17:26.281Z,101907.84
2023-04-16T14:19:52.799Z,101897.47
2023-04-16T14:22:19.355Z,101908.63
2023-04-16T14:24:46.069Z,101912.59
2023-04-16T14:27:12.582Z,101898.22
2023-04-16T14:29:39.180Z,101906.19
2023-04-16T14:32:06.736Z,101910.56
2023-04-16T14:34:33.274Z,101911.03
2023-04-16T14:36:59.988Z,101903.00
2023-04-16T14:39:27.051Z,101910.16
2023-04-16T14:41:53.627Z,101906.13
2023-04-16T14:44:20.198Z,101902.91
2023-04-16T14:46:46.733Z,101913.25
2023-04-16T14:49:14.456Z,101912.47
2023-04-16T14:51:41.820Z,101906.94
2023-04-16T14:54:08.376Z,101912.06
2023-04-16T14:56:34.845Z,101902.88
2023-04-16T14:59:01.325Z,101906.84
2023-04-16T15:01:27.906Z,101910.38
2023-04-16T15:03:59.236Z,101908.41
2023-04-16T15:06:28.050Z,101904.38
2023-04-16T15:08:54.588Z,101899.97
2023-04-16T15:11:21.255Z,101895.53
2023-04-16T15:13:47.712Z,101901.13
2023-04-16T15:16:14.335Z,101909.06
2023-04-16T15:18:40.914Z,101902.59
2023-04-16T15:21:07.400Z,101900.88
2023-04-16T15:23:33.912Z,101895.28
2023-04-16T15:26:00.749Z,101906.34
2023-04-16T15:28:27.272Z,101901.50
2023-04-16T15:30:53.835Z,101898.66
2023-04-16T15:33:23.418Z,101897.03
2023-04-16T15:35:51.640Z,101903.81
2023-04-16T15:38:21.257Z,101885.78
2023-04-16T15:40:48.044Z,101908.69
2023-04-16T15:43:15.636Z,101892.88
2023-04-16T15:45:42.107Z,101907.06
2023-04-16T15:48:08.970Z,101910.66
2023-04-16T15:50:35.815Z,101893.44
2023-04-16T15:53:03.115Z,101907.28
2023-04-16T15:55:29.655Z,101905.31
2023-04-16T15:57:56.151Z,101907.81
2023-04-16T16:00:22.978Z,101904.72
2023-04-16T16:02:49.606Z,101913.28
2023-04-16T16:05:16.796Z,101905.28
2023-04-16T16:07:43.862Z,101898.88
2023-04-16T16:10:11.183Z,101898.72
2023-04-16T16:12:37.839Z,101893.56
2023-04-16T16:15:05.016Z,101896.44
2023-04-16T16:17:31.749Z,101892.50
2023-04-16T16:19:59.108Z,101893.25
2023-04-16T16:22:26.025Z,101892.13
2023-04-16T16:24:56.389Z,101900.47
2023-04-16T16:27:23.348Z,101903.56
2023-04-16T16:29:50.124Z,101904.00
2023-04-16T16:32:16.720Z,101902.94
2023-04-16T16:34:43.312Z,101907.34
2023-04-16T16:37:09.790Z,101903.88
2023-04-16T16:39:38.474Z,101913.06
2023-04-16T16:42:05.932Z,101907.16
2023-04-16T16:44:32.423Z,101912.06
2023-04-16T16:46:59.626Z,101915.75
2023-04-16T16:49:26.142Z,101909.41
2023-04-16T16:51:52.632Z,101915.41
2023-04-16T16:54:19.090Z,101913.88
2023-04-16T16:56:45.557Z,101910.78
2023-04-16T16:59:14.927Z,101918.47
2023-04-16T17:01:41.414Z,101914.50
2023-04-16T17:04:08.050Z,101921.75
2023-04-16T17:06:34.732Z,101911.81
2023-04-16T17:09:01.248Z,101915.44
2023-04-16T17:11:29.283Z,101914.25
2023-04-16T17:13:55.911Z,101919.06
2023-04-16T17:16:23.875Z,101917.47
2023-04-16T17:18:50.422Z,101923.09
2023-04-16T17:21:16.987Z,101920.75
2023-04-16T17:23:43.508Z,101920.78
2023-04-16T17:26:10.048Z,101921.53
2023-04-16T17:28:36.568Z,101924.38
2023-04-16T17:31:03.634Z,101925.56
2023-04-16T17:33:30.127Z,101927.19
2023-04-16T17:35:56.664Z,101932.81
2023-04-16T17:38:23.179Z,101930.84
2023-04-16T17:40:49.810Z,101938.00
2023-04-16T17:43:16.327Z,101939.22
2023-04-16T17:45:42.858Z,101936.81
2023-04-16T17:48:09.528Z,101940.78
2023-04-16T17:50:38.208Z,101942.41
2023-04-16T17:53:05.939Z,101937.63
2023-04-16T17:55:32.441Z,101955.97
2023-04-16T17:58:00.350Z,101947.97
2023-04-16T18:00:26.888Z,101956.34
2023-04-16T18:02:54.222Z,101956.34
2023-04-16T18:05:21.231Z,101954.75
2023-04-16T18:07:48.295Z,101950.75
2023-04-16T18:10:14.786Z,101947.97
2023-04-16T18:12:41.229Z,101957.13
2023-04-16T18:15:08.412Z,101961.50
2023-04-16T18:17:35.205Z,101955.91
2023-04-16T18:20:01.758Z,101967.06
2023-04-16T18:22:28.590Z,101966.25
2023-04-16T18:24:55.319Z,101971.81
2023-04-16T18:27:22.001Z,101972.97
2023-04-16T18:29:49.515Z,101972.19
2023-04-16T18:32:16.374Z,101961.78
2023-04-16T18:34:43.068Z,101975.34
2023-04-16T18:37:10.461Z,101972.94
2023-04-16T18:39:37.328Z,101974.53
2023-04-16T18:42:03.988Z,101976.09
2023-04-16T18:44:30.543Z,101980.06
2023-04-16T18:46:57.114Z,101986.44
2023-04-16T18:49:23.890Z,101983.66
2023-04-16T18:51:50.350Z,101988.41
2023-04-16T18:54:16.948Z,101992.38
2023-04-16T18:56:43.411Z,101996.75
2023-04-16T18:59:10.147Z,101999.53
2023-04-16T19:01:36.869Z,101996.69
2023-04-16T19:04:03.488Z,102005.84
2023-04-16T19:06:30.082Z,102005.84
2023-04-16T19:08:56.574Z,101995.47
2023-04-16T19:11:23.047Z,102004.19
2023-04-16T19:13:49.536Z,101997.00
2023-04-16T19:16:16.903Z,102001.78
2023-04-16T19:18:43.474Z,102006.56
2023-04-16T19:21:10.866Z,102008.16
2023-04-16T19:23:37.497Z,102016.09
2023-04-16T19:26:03.995Z,102009.34
2023-04-16T19:28:31.312Z,102021.66
2023-04-16T19:30:57.768Z,102020.50
2023-04-16T19:33:24.334Z,102018.09
2023-04-16T19:35:50.899Z,102012.09
2023-04-16T19:38:17.376Z,102017.28
2023-04-16T19:40:45.788Z,102006.88
2023-04-16T19:43:12.618Z,102008.09
2023-04-16T19:45:46.525Z,102004.88
2023-04-16T19:48:13.290Z,102014.03
2023-04-16T19:50:41.271Z,102014.81
2023-04-16T19:53:08.883Z,102023.97
2023-04-16T19:55:35.470Z,102023.16
2023-04-16T19:58:06.138Z,102017.97
2023-04-16T20:00:37.212Z,102011.94
2023-04-16T20:03:04.882Z,102013.56
2023-04-16T20:05:31.391Z,102019.09
2023-04-16T20:07:57.882Z,102015.09
2023-04-16T20:10:24.499Z,102025.81
2023-04-16T20:12:51.371Z,102024.19
2023-04-16T20:15:18.608Z,102024.56
2023-04-16T20:17:45.197Z,102021.78
2023-04-16T20:20:12.069Z,102028.09
2023-04-16T20:22:42.199Z,102032.41
2023-04-16T20:25:09.283Z,102029.63
2023-04-16T20:27:35.853Z,102024.47
2023-04-16T20:30:02.686Z,102029.97
2023-04-16T20:32:29.161Z,102033.13
2023-04-16T20:34:55.690Z,102026.31
2023-04-16T20:37:22.468Z,102037.88
2023-04-16T20:39:50.204Z,102039.06
2023-04-16T20:42:16.751Z,102034.63
2023-04-16T20:44:50.190Z,102027.41
2023-04-16T20:47:17.248Z,102031.03
2023-04-16T20:49:47.460Z,102030.59
2023-04-16T20:52:14.227Z,102035.34
2023-04-16T20:54:40.906Z,102033.78
2023-04-16T20:57:07.730Z,102032.19
2023-04-16T20:59:34.382Z,102023.00
2023-04-16T21:02:01.013Z,102031.31
2023-04-16T21:04:27.605Z,102026.97
2023-04-16T21:06:54.248Z,102032.84
2023-04-16T21:09:20.884Z,102031.63
2023-04-16T21:11:47.808Z,102028.41
2023-04-16T21:14:14.578Z,102022.91
2023-04-16T21:16:41.026Z,102028.84
2023-04-16T21:19:08.746Z,102022.44
2023-04-16T21:21:35.451Z,102024.75
2023-04-16T21:24:02.170Z,102031.09
2023-04-16T21:26:28.630Z,102023.91
2023-04-16T21:28:55.483Z,102029.88
2023-04-16T21:31:22.042Z,102032.22
2023-04-16T21:33:48.583Z,102030.25
2023-04-16T21:36:15.481Z,102028.59
2023-04-16T21:38:41.921Z,102030.56
2023-04-16T21:41:08.425Z,102031.78
2023-04-16T21:43:34.882Z,102031.75
2023-04-16T21:46:01.381Z,102020.56
2023-04-16T21:48:28.514Z,102031.69
2023-04-16T21:50:59.907Z,102026.50
2023-04-16T21:53:28.075Z,102033.28
2023-04-16T21:55:54.678Z,102033.25
2023-04-16T21:58:21.117Z,102028.06
2023-04-16T22:00:47.605Z,102034.00
2023-04-16T22:03:17.459Z,102032.38
2023-04-16T22:05:45.873Z,102028.47
2023-04-16T22:08:24.007Z,102029.97
2023-04-16T22:10:51.546Z,102026.38
2023-04-16T22:13:18.182Z,102033.13
2023-04-16T22:15:44.713Z,102021.97
2023-04-16T22:18:11.448Z,102026.72
2023-04-16T22:20:39.213Z,102027.50
2023-04-16T22:23:08.543Z,102031.44
2023-04-16T22:25:35.219Z,102025.09
2023-04-16T22:28:01.837Z,102029.06
2023-04-16T22:30:28.401Z,102025.03
2023-04-16T22:32:55.091Z,102031.34
2023-04-16T22:35:21.631Z,102024.94
2023-04-16T22:37:48.082Z,102028.16
2023-04-16T22:40:14.941Z,102026.97
2023-04-16T22:42:41.536Z,102030.19
2023-04-16T22:45:08.815Z,102028.16
2023-04-16T22:47:35.372Z,102025.38
2023-04-16T22:50:03.201Z,102030.50
2023-04-16T22:52:29.680Z,102034.53
2023-04-16T22:54:56.297Z,102031.34
2023-04-16T22:57:25.392Z,102032.16
2023-04-16T22:59:53.023Z,102041.66
2023-04-16T23:02:20.807Z,102030.56
2023-04-16T23:04:47.973Z,102037.66
2023-04-16T23:07:15.528Z,102028.16
2023-04-16T23:09:42.571Z,102027.41
2023-04-16T23:12:09.183Z,102030.50
2023-04-16T23:14:36.934Z,102034.91
2023-04-16T23:17:03.688Z,102032.97
2023-04-16T23:19:31.242Z,102029.38
2023-04-16T23:21:57.954Z,102028.97
2023-04-16T23:24:24.525Z,102032.53
2023-04-16T23:26:52.451Z,102032.16
2023-04-16T23:29:19.636Z,102031.75
2023-04-16T23:31:46.241Z,102035.72
2023-04-16T23:34:12.714Z,102037.00
2023-04-16T23:36:39.340Z,102042.56
2023-04-16T23:39:05.809Z,102041.00
2023-04-16T23:41:32.421Z,102042.97
2023-04-16T23:43:59.025Z,102043.41
2023-04-16T23:46:26.150Z,102042.59
2023-04-16T23:48:52.775Z,102042.59
2023-04-16T23:51:19.235Z,102042.19
2023-04-16T23:53:45.686Z,102032.66
2023-04-16T23:56:12.224Z,102041.81
2023-04-16T23:58:38.668Z,102039.84
